createdAt,value
2023-04-01T00:03:36.466Z,9.73
2023-04-01T00:07:40.113Z,9.75
2023-04-01T00:11:43.334Z,9.75
2023-04-01T00:15:49.543Z,9.75
2023-04-01T00:19:52.685Z,9.78
2023-04-01T00:23:55.789Z,9.81
2023-04-01T00:27:59.068Z,9.79
2023-04-01T00:32:05.723Z,9.81
2023-04-01T00:36:11.119Z,9.80
2023-04-01T00:40:27.473Z,9.78
2023-04-01T00:44:34.235Z,9.75
2023-04-01T00:48:41.759Z,9.79
2023-04-01T00:52:45.096Z,9.78
2023-04-01T00:56:52.466Z,9.77
2023-04-01T01:00:57.886Z,9.75
2023-04-01T01:05:02.501Z,9.79
2023-04-01T01:09:28.177Z,9.81
2023-04-01T01:13:38.372Z,9.80
2023-04-01T01:17:51.273Z,9.81
2023-04-01T01:22:15.641Z,9.72
2023-04-01T01:26:40.116Z,9.72
2023-04-01T01:30:53.675Z,9.72
2023-04-01T01:35:11.033Z,9.71
2023-04-01T01:39:15.919Z,9.63
2023-04-01T01:43:24.771Z,9.58
2023-04-01T01:47:30.586Z,9.54
2023-04-01T01:51:36.266Z,9.53
2023-04-01T01:55:42.742Z,9.50
2023-04-01T01:59:48.082Z,9.49
2023-04-01T02:04:00.101Z,9.48
2023-04-01T02:08:11.558Z,9.49
2023-04-01T02:12:17.886Z,9.47
2023-04-01T02:16:25.310Z,9.42
2023-04-01T02:20:31.099Z,9.42
2023-04-01T02:24:38.591Z,9.42
2023-04-01T02:28:44.639Z,9.45
2023-04-01T02:32:49.001Z,9.40
2023-04-01T02:36:53.516Z,9.38
2023-04-01T02:41:02.476Z,9.37
2023-04-01T02:45:06.601Z,9.38
2023-04-01T02:49:09.838Z,9.40
2023-04-01T02:53:13.178Z,9.42
2023-04-01T02:57:17.670Z,9.42
2023-04-01T03:01:20.930Z,9.42
2023-04-01T03:05:24.484Z,9.46
2023-04-01T03:09:27.888Z,9.47
2023-04-01T03:13:32.857Z,9.49
2023-04-01T03:17:36.019Z,9.48
2023-04-01T03:21:39.375Z,9.49
2023-04-01T03:25:42.462Z,9.47
2023-04-01T03:29:47.108Z,9.49
2023-04-01T03:33:50.289Z,9.49
2023-04-01T03:37:54.032Z,9.49
2023-04-01T03:41:57.536Z,9.46
2023-04-01T03:46:02.429Z,9.45
2023-04-01T03:50:08.477Z,9.44
2023-04-01T03:54:12.485Z,9.43
2023-04-01T03:58:16.310Z,9.45
2023-04-01T04:02:21.208Z,9.47
2023-04-01T04:06:26.073Z,9.46
2023-04-01T04:10:30.307Z,9.46
2023-04-01T04:14:33.427Z,9.48
2023-04-01T04:18:38.797Z,9.52
2023-04-01T04:22:42.036Z,9.51
2023-04-01T04:26:45.644Z,9.48
2023-04-01T04:30:49.056Z,9.48
2023-04-01T04:34:53.570Z,9.48
2023-04-01T04:38:56.807Z,9.46
2023-04-01T04:42:59.945Z,9.41
2023-04-01T04:47:03.596Z,9.42
2023-04-01T04:51:08.112Z,9.41
2023-04-01T04:55:11.480Z,9.41
2023-04-01T04:59:15.491Z,9.37
2023-04-01T05:03:32.905Z,9.36
2023-04-01T05:07:37.521Z,9.33
2023-04-01T05:11:41.253Z,9.33
2023-04-01T05:15:44.415Z,9.31
2023-04-01T05:19:48.000Z,9.35
2023-04-01T05:23:52.732Z,9.35
2023-04-01T05:27:56.016Z,9.34
2023-04-01T05:31:59.668Z,9.38
2023-04-01T05:36:08.862Z,9.39
2023-04-01T05:40:13.864Z,9.40
2023-04-01T05:44:17.145Z,9.41
2023-04-01T05:48:20.437Z,9.41
2023-04-01T05:52:23.597Z,9.44
2023-04-01T05:56:27.975Z,9.43
2023-04-01T06:00:31.905Z,9.44
2023-04-01T06:04:40.515Z,9.41
2023-04-01T06:08:44.620Z,9.39
2023-04-01T06:13:02.153Z,9.35
2023-04-01T06:17:29.534Z,9.31
2023-04-01T06:21:46.961Z,9.30
2023-04-01T06:26:14.525Z,9.31
2023-04-01T06:30:44.741Z,9.33
2023-04-01T06:35:21.125Z,9.33
2023-04-01T06:39:36.456Z,9.32
2023-04-01T06:43:52.448Z,9.33
2023-04-01T06:48:11.744Z,9.30
2023-04-01T06:52:57.854Z,9.33
2023-04-01T06:57:33.853Z,9.33
2023-04-01T07:01:41.453Z,9.34
2023-04-01T07:05:46.442Z,9.34
2023-04-01T07:09:54.345Z,9.34
2023-04-01T07:14:32.452Z,9.35
2023-04-01T07:18:40.864Z,9.33
2023-04-01T07:22:48.188Z,9.35
2023-04-01T07:27:02.766Z,9.37
2023-04-01T07:31:18.448Z,9.41
2023-04-01T07:35:29.314Z,9.40
2023-04-01T07:39:42.470Z,9.42
2023-04-01T07:44:07.529Z,9.43
2023-04-01T07:48:25.096Z,9.48
2023-04-01T07:52:37.459Z,9.44
2023-04-01T07:56:57.316Z,9.47
2023-04-01T08:01:23.232Z,9.43
2023-04-01T08:05:30.246Z,9.45
2023-04-01T08:09:45.047Z,9.46
2023-04-01T08:14:21.189Z,9.48
2023-04-01T08:18:49.190Z,9.48
2023-04-01T08:22:56.334Z,9.47
2023-04-01T08:27:14.318Z,9.46
2023-04-01T08:31:25.663Z,9.50
2023-04-01T08:35:34.894Z,9.49
2023-04-01T08:39:43.046Z,9.53
2023-04-01T08:44:14.158Z,9.50
2023-04-01T08:48:30.232Z,9.58
2023-04-01T08:52:37.402Z,9.51
2023-04-01T08:56:48.687Z,9.55
2023-04-01T09:01:08.896Z,9.54
2023-04-01T09:05:45.610Z,9.52
2023-04-01T09:10:11.036Z,9.53
2023-04-01T09:14:34.470Z,9.56
2023-04-01T09:19:28.424Z,9.51
2023-04-01T09:23:58.806Z,9.52
2023-04-01T09:28:11.306Z,9.55
2023-04-01T09:32:36.094Z,9.59
2023-04-01T09:36:48.758Z,9.60
2023-04-01T09:41:00.092Z,9.66
2023-04-01T09:45:44.301Z,9.68
2023-04-01T09:50:16.432Z,9.70
2023-04-01T09:54:34.613Z,9.72
2023-04-01T09:59:04.875Z,9.73
2023-04-01T10:04:26.324Z,9.69
2023-04-01T10:09:06.205Z,9.74
2023-04-01T10:13:41.907Z,9.79
2023-04-01T10:18:30.041Z,9.81
2023-04-01T10:22:56.475Z,10.07
2023-04-01T10:27:14.538Z,10.21
2023-04-01T10:32:06.015Z,10.27
2023-04-01T10:36:41.732Z,10.14
2023-04-01T10:41:17.721Z,10.03
2023-04-01T10:46:28.372Z,9.98
2023-04-01T10:50:58.617Z,10.01
2023-04-01T10:55:29.825Z,9.97
2023-04-01T11:00:36.542Z,10.02
2023-04-01T11:05:42.712Z,10.04
2023-04-01T11:10:34.959Z,10.17
2023-04-01T11:15:01.863Z,10.28
2023-04-01T11:19:31.735Z,10.46
2023-04-01T11:24:02.213Z,10.39
2023-04-01T11:28:31.355Z,10.42
2023-04-01T11:32:45.331Z,10.36
2023-04-01T11:37:02.468Z,10.40
2023-04-01T11:41:23.012Z,10.48
2023-04-01T11:45:52.273Z,10.60
2023-04-01T11:50:13.679Z,10.72
2023-04-01T11:54:38.595Z,10.67
2023-04-01T11:59:01.079Z,10.64
2023-04-01T12:03:23.768Z,10.72
2023-04-01T12:07:53.919Z,10.79
2023-04-01T12:12:14.328Z,10.85
2023-04-01T12:16:43.996Z,10.96
2023-04-01T12:20:54.468Z,10.88
2023-04-01T12:25:09.737Z,10.76
2023-04-01T12:29:47.458Z,10.56
2023-04-01T12:34:03.117Z,10.48
2023-04-01T12:38:23.564Z,10.45
2023-04-01T12:42:47.230Z,10.43
2023-04-01T12:47:09.701Z,10.40
2023-04-01T12:51:44.002Z,10.39
2023-04-01T12:55:50.416Z,10.48
2023-04-01T13:00:11.742Z,10.55
2023-04-01T13:04:44.011Z,10.49
2023-04-01T13:08:56.903Z,10.45
2023-04-01T13:13:21.372Z,10.43
2023-04-01T13:17:30.947Z,10.35
2023-04-01T13:21:47.006Z,10.30
2023-04-01T13:26:10.842Z,10.31
2023-04-01T13:30:28.632Z,10.34
2023-04-01T13:34:49.157Z,10.39
2023-04-01T13:39:19.773Z,10.47
2023-04-01T13:43:26.828Z,10.61
2023-04-01T13:48:04.261Z,10.62
2023-04-01T13:52:49.055Z,10.62
2023-04-01T13:57:04.581Z,10.48
2023-04-01T14:01:17.525Z,10.36
2023-04-01T14:05:52.892Z,10.39
2023-04-01T14:10:15.140Z,10.38
2023-04-01T14:14:32.585Z,10.23
2023-04-01T14:19:00.801Z,10.21
2023-04-01T14:23:44.982Z,10.21
2023-04-01T14:28:01.644Z,10.17
2023-04-01T14:32:14.307Z,10.19
2023-04-01T14:36:40.156Z,10.17
2023-04-01T14:40:54.938Z,10.13
2023-04-01T14:45:29.848Z,10.13
2023-04-01T14:49:37.746Z,10.20
2023-04-01T14:53:46.975Z,10.19
2023-04-01T14:58:01.268Z,10.14
2023-04-01T15:02:17.069Z,10.13
2023-04-01T15:06:43.530Z,10.14
2023-04-01T15:11:20.233Z,10.11
2023-04-01T15:15:38.148Z,10.11
2023-04-01T15:20:01.049Z,10.07
2023-04-01T15:24:12.741Z,10.01
2023-04-01T15:28:32.027Z,10.00
2023-04-01T15:32:50.474Z,10.01
2023-04-01T15:36:59.457Z,10.00
2023-04-01T15:41:13.566Z,9.98
2023-04-01T15:45:36.365Z,9.99
2023-04-01T15:49:45.540Z,9.97
2023-04-01T15:54:22.058Z,9.93
2023-04-01T15:58:49.830Z,9.95
2023-04-01T16:03:05.229Z,9.94
2023-04-01T16:07:19.024Z,9.94
2023-04-01T16:11:34.294Z,9.93
2023-04-01T16:15:46.780Z,9.91
2023-04-01T16:19:55.050Z,9.90
2023-04-01T16:24:03.902Z,9.86
2023-04-01T16:28:24.554Z,9.86
2023-04-01T16:32:41.702Z,9.83
2023-04-01T16:36:50.452Z,9.81
2023-04-01T16:41:07.659Z,9.83
2023-04-01T16:45:23.813Z,9.81
2023-04-01T16:49:38.822Z,9.79
2023-04-01T16:53:45.080Z,9.75
2023-04-01T16:57:52.686Z,9.75
2023-04-01T17:02:04.810Z,9.79
2023-04-01T17:06:27.589Z,9.75
2023-04-01T17:10:43.747Z,9.75
2023-04-01T17:14:56.707Z,9.73
2023-04-01T17:19:07.762Z,9.69
2023-04-01T17:23:22.579Z,9.64
2023-04-01T17:27:39.050Z,9.60
2023-04-01T17:31:54.430Z,9.58
2023-04-01T17:36:01.702Z,9.57
2023-04-01T17:40:25.741Z,9.56
2023-04-01T17:44:46.599Z,9.47
2023-04-01T17:49:02.465Z,9.45
2023-04-01T17:53:17.016Z,9.38
2023-04-01T17:57:40.984Z,9.37
2023-04-01T18:01:57.010Z,9.38
2023-04-01T18:06:08.983Z,9.36
2023-04-01T18:10:26.289Z,9.33
2023-04-01T18:15:00.865Z,9.32
2023-04-01T18:19:11.516Z,9.33
2023-04-01T18:23:28.790Z,9.34
2023-04-01T18:27:38.602Z,9.34
2023-04-01T18:31:46.127Z,9.38
2023-04-01T18:35:54.768Z,9.37
2023-04-01T18:40:06.055Z,9.38
2023-04-01T18:44:31.372Z,9.39
2023-04-01T18:48:52.221Z,9.39
2023-04-01T18:53:01.109Z,9.32
2023-04-01T18:57:07.586Z,9.32
2023-04-01T19:01:19.712Z,9.29
2023-04-01T19:05:27.442Z,9.23
2023-04-01T19:09:32.620Z,9.23
2023-04-01T19:13:40.893Z,9.21
2023-04-01T19:17:51.089Z,9.20
2023-04-01T19:21:58.032Z,9.19
2023-04-01T19:26:01.993Z,9.18
2023-04-01T19:30:38.475Z,9.16
2023-04-01T19:34:52.440Z,9.18
2023-04-01T19:39:08.392Z,9.19
2023-04-01T19:43:23.206Z,9.19
2023-04-01T19:47:42.891Z,9.19
2023-04-01T19:51:54.585Z,9.20
2023-04-01T19:56:08.331Z,9.17
2023-04-01T20:00:24.558Z,9.18
2023-04-01T20:04:32.108Z,9.15
2023-04-01T20:08:41.839Z,9.18
2023-04-01T20:12:54.222Z,9.18
2023-04-01T20:17:20.673Z,9.19
2023-04-01T20:21:35.724Z,9.17
2023-04-01T20:25:45.126Z,9.26
2023-04-01T20:30:01.568Z,9.24
2023-04-01T20:34:23.063Z,9.35
2023-04-01T20:39:05.869Z,9.39
2023-04-01T20:43:41.085Z,9.43
2023-04-01T20:48:02.967Z,9.42
2023-04-01T20:52:23.486Z,9.40
2023-04-01T20:56:43.976Z,9.39
2023-04-01T21:01:00.620Z,9.36
2023-04-01T21:05:43.085Z,9.31
2023-04-01T21:10:01.161Z,9.29
2023-04-01T21:14:28.960Z,9.26
2023-04-01T21:18:59.162Z,9.20
2023-04-01T21:23:30.812Z,9.14
2023-04-01T21:27:49.505Z,9.07
2023-04-01T21:32:08.319Z,8.98
2023-04-01T21:36:25.710Z,8.92
2023-04-01T21:41:09.002Z,8.88
2023-04-01T21:45:22.442Z,8.83
2023-04-01T21:49:46.241Z,8.83
2023-04-01T21:54:19.201Z,8.84
2023-04-01T21:58:53.265Z,8.83
2023-04-01T22:03:26.098Z,8.79
2023-04-01T22:07:38.529Z,8.76
2023-04-01T22:11:55.652Z,8.65
2023-04-01T22:16:12.454Z,8.64
2023-04-01T22:20:25.924Z,8.55
2023-04-01T22:24:38.786Z,8.46
2023-04-01T22:28:50.133Z,8.43
2023-04-01T22:33:04.419Z,8.40
2023-04-01T22:37:17.855Z,8.37
2023-04-01T22:41:30.328Z,8.31
2023-04-01T22:45:58.733Z,8.18
2023-04-01T22:50:10.903Z,8.13
2023-04-01T22:54:21.953Z,8.05
2023-04-01T22:58:32.446Z,7.98
2023-04-01T23:02:40.577Z,7.92
2023-04-01T23:06:49.386Z,7.92
2023-04-01T23:10:56.070Z,7.84
2023-04-01T23:15:01.852Z,7.79
2023-04-01T23:19:14.814Z,7.76
2023-04-01T23:23:30.205Z,7.78
2023-04-01T23:27:38.228Z,7.79
2023-04-01T23:31:43.300Z,7.73
2023-04-01T23:35:49.661Z,7.70
2023-04-01T23:39:57.005Z,7.66
2023-04-01T23:44:04.685Z,7.64
2023-04-01T23:48:09.600Z,7.61
2023-04-01T23:52:16.332Z,7.58
2023-04-01T23:56:22.316Z,7.51
